sensor_id;sensor_type;location;lat;lon;timestamp;temperature;humidity
11619;DHT22;5865;48.776;9.280;2023-11-19T00:00:03;7.80;99.90
11619;DHT22;5865;48.776;9.280;2023-11-19T00:13:04;8.10;99.90
11619;DHT22;5865;48.776;9.280;2023-11-19T00:19:13;8.20;99.90
11619;DHT22;5865;48.776;9.280;2023-11-19T00:41:03;8.50;99.90
11619;DHT22;5865;48.776;9.280;2023-11-19T00:52:06;8.40;99.90
11619;DHT22;5865;48.776;9.280;2023-11-19T00:58:06;8.40;99.90
11619;DHT22;5865;48.776;9.280;2023-11-19T01:08:49;8.60;99.90
11619;DHT22;5865;48.776;9.280;2023-11-19T01:20:37;8.60;99.90
11619;DHT22;5865;48.776;9.280;2023-11-19T01:31:10;8.70;99.90
11619;DHT22;5865;48.776;9.280;2023-11-19T01:44:58;8.60;99.90
11619;DHT22;5865;48.776;9.280;2023-11-19T01:47:40;8.70;99.90
11619;DHT22;5865;48.776;9.280;2023-11-19T01:50:21;8.70;99.90
11619;DHT22;5865;48.776;9.280;2023-11-19T02:02:10;8.70;99.90
11619;DHT22;5865;48.776;9.280;2023-11-19T02:04:52;8.80;99.90
11619;DHT22;5865;48.776;9.280;2023-11-19T02:10:06;8.90;99.90
11619;DHT22;5865;48.776;9.280;2023-11-19T02:25:04;9.20;99.90
11619;DHT22;5865;48.776;9.280;2023-11-19T02:27:53;9.20;99.90
11619;DHT22;5865;48.776;9.280;2023-11-19T02:47:36;9.30;99.90
11619;DHT22;5865;48.776;9.280;2023-11-19T02:52:58;9.30;99.90
11619;DHT22;5865;48.776;9.280;2023-11-19T03:17:44;9.30;99.90
11619;DHT22;5865;48.776;9.280;2023-11-19T04:03:05;9.50;99.90
11619;DHT22;5865;48.776;9.280;2023-11-19T04:24:09;9.80;99.90
11619;DHT22;5865;48.776;9.280;2023-11-19T04:26:40;9.80;99.90
11619;DHT22;5865;48.776;9.280;2023-11-19T04:29:14;9.90;99.90
11619;DHT22;5865;48.776;9.280;2023-11-19T04:31:43;10.00;99.90
11619;DHT22;5865;48.776;9.280;2023-11-19T04:41:45;10.10;99.90
11619;DHT22;5865;48.776;9.280;2023-11-19T04:59:06;10.20;99.90
11619;DHT22;5865;48.776;9.280;2023-11-19T05:06:32;10.20;99.90
11619;DHT22;5865;48.776;9.280;2023-11-19T05:08:59;10.10;99.90
11619;DHT22;5865;48.776;9.280;2023-11-19T05:16:25;10.30;99.90
11619;DHT22;5865;48.776;9.280;2023-11-19T05:31:15;10.30;99.90
11619;DHT22;5865;48.776;9.280;2023-11-19T06:00:54;10.60;99.90
11619;DHT22;5865;48.776;9.280;2023-11-19T06:57:59;10.80;99.90
11619;DHT22;5865;48.776;9.280;2023-11-19T07:16:19;10.90;99.90
11619;DHT22;5865;48.776;9.280;2023-11-19T07:18:51;10.80;99.90
11619;DHT22;5865;48.776;9.280;2023-11-19T07:31:13;11.00;99.90
11619;DHT22;5865;48.776;9.280;2023-11-19T08:38:47;12.10;99.90
11619;DHT22;5865;48.776;9.280;2023-11-19T09:04:29;13.00;99.90
11619;DHT22;5865;48.776;9.280;2023-11-19T09:15:33;13.20;99.90
11619;DHT22;5865;48.776;9.280;2023-11-19T09:25:53;13.70;99.90
11619;DHT22;5865;48.776;9.280;2023-11-19T09:28:39;13.70;99.90
11619;DHT22;5865;48.776;9.280;2023-11-19T09:46:50;13.90;99.90
11619;DHT22;5865;48.776;9.280;2023-11-19T09:49:21;14.00;99.90
11619;DHT22;5865;48.776;9.280;2023-11-19T09:54:42;14.60;99.90
11619;DHT22;5865;48.776;9.280;2023-11-19T10:02:56;15.30;99.90
11619;DHT22;5865;48.776;9.280;2023-11-19T10:15:57;16.00;99.90
11619;DHT22;5865;48.776;9.280;2023-11-19T10:18:26;16.00;99.90
11619;DHT22;5865;48.776;9.280;2023-11-19T10:20:53;16.00;99.90
11619;DHT22;5865;48.776;9.280;2023-11-19T10:23:20;16.30;99.90
11619;DHT22;5865;48.776;9.280;2023-11-19T10:25:47;16.50;99.90
11619;DHT22;5865;48.776;9.280;2023-11-19T10:28:15;16.60;99.90
11619;DHT22;5865;48.776;9.280;2023-11-19T10:30:42;16.60;99.90
11619;DHT22;5865;48.776;9.280;2023-11-19T10:33:10;16.70;99.90
11619;DHT22;5865;48.776;9.280;2023-11-19T10:35:52;16.50;99.90
11619;DHT22;5865;48.776;9.280;2023-11-19T10:38:20;16.20;99.90
11619;DHT22;5865;48.776;9.280;2023-11-19T10:40:48;16.50;99.90
11619;DHT22;5865;48.776;9.280;2023-11-19T10:43:15;16.20;99.90
11619;DHT22;5865;48.776;9.280;2023-11-19T10:45:42;15.80;99.90
11619;DHT22;5865;48.776;9.280;2023-11-19T10:48:09;15.80;99.90
11619;DHT22;5865;48.776;9.280;2023-11-19T10:50:39;16.20;99.90
11619;DHT22;5865;48.776;9.280;2023-11-19T10:53:09;16.20;99.90
11619;DHT22;5865;48.776;9.280;2023-11-19T10:55:37;16.20;99.90
11619;DHT22;5865;48.776;9.280;2023-11-19T10:58:06;15.90;99.90
11619;DHT22;5865;48.776;9.280;2023-11-19T11:00:38;16.20;99.90
11619;DHT22;5865;48.776;9.280;2023-11-19T11:03:11;16.30;99.90
11619;DHT22;5865;48.776;9.280;2023-11-19T11:05:38;16.70;99.90
11619;DHT22;5865;48.776;9.280;2023-11-19T11:08:10;16.50;99.90
11619;DHT22;5865;48.776;9.280;2023-11-19T11:10:42;16.90;99.90
11619;DHT22;5865;48.776;9.280;2023-11-19T11:13:09;16.90;99.90
11619;DHT22;5865;48.776;9.280;2023-11-19T11:15:37;17.20;99.90
11619;DHT22;5865;48.776;9.280;2023-11-19T11:18:07;17.20;99.90
11619;DHT22;5865;48.776;9.280;2023-11-19T11:20:35;16.50;99.90
11619;DHT22;5865;48.776;9.280;2023-11-19T11:23:21;16.50;99.90
11619;DHT22;5865;48.776;9.280;2023-11-19T11:25:58;16.30;99.90
11619;DHT22;5865;48.776;9.280;2023-11-19T11:28:34;16.10;99.90
11619;DHT22;5865;48.776;9.280;2023-11-19T11:31:13;16.10;99.90
11619;DHT22;5865;48.776;9.280;2023-11-19T11:34:07;16.10;99.90
11619;DHT22;5865;48.776;9.280;2023-11-19T11:36:42;16.30;99.90
11619;DHT22;5865;48.776;9.280;2023-11-19T11:39:13;16.20;99.90
11619;DHT22;5865;48.776;9.280;2023-11-19T11:41:40;16.10;99.90
11619;DHT22;5865;48.776;9.280;2023-11-19T11:44:08;15.90;99.90
11619;DHT22;5865;48.776;9.280;2023-11-19T11:46:54;15.70;99.90
11619;DHT22;5865;48.776;9.280;2023-11-19T11:49:28;15.50;99.90
11619;DHT22;5865;48.776;9.280;2023-11-19T11:52:02;15.20;99.90
11619;DHT22;5865;48.776;9.280;2023-11-19T11:54:31;15.10;99.90
11619;DHT22;5865;48.776;9.280;2023-11-19T11:57:03;15.20;99.90
11619;DHT22;5865;48.776;9.280;2023-11-19T11:59:36;15.40;99.90
11619;DHT22;5865;48.776;9.280;2023-11-19T12:02:03;15.70;99.90
11619;DHT22;5865;48.776;9.280;2023-11-19T12:04:30;15.90;99.90
11619;DHT22;5865;48.776;9.280;2023-11-19T12:07:04;16.10;99.90
11619;DHT22;5865;48.776;9.280;2023-11-19T12:09:33;16.50;99.90
11619;DHT22;5865;48.776;9.280;2023-11-19T12:12:18;16.90;99.90
11619;DHT22;5865;48.776;9.280;2023-11-19T12:15:06;17.00;99.90
11619;DHT22;5865;48.776;9.280;2023-11-19T12:17:43;17.00;99.90
11619;DHT22;5865;48.776;9.280;2023-11-19T12:20:15;17.60;99.90
11619;DHT22;5865;48.776;9.280;2023-11-19T12:22:43;17.60;99.90
11619;DHT22;5865;48.776;9.280;2023-11-19T12:25:12;17.80;99.90
11619;DHT22;5865;48.776;9.280;2023-11-19T12:27:40;17.90;99.90
11619;DHT22;5865;48.776;9.280;2023-11-19T12:30:08;17.80;99.90
11619;DHT22;5865;48.776;9.280;2023-11-19T12:32:39;17.80;99.90
11619;DHT22;5865;48.776;9.280;2023-11-19T12:35:07;17.40;99.90
11619;DHT22;5865;48.776;9.280;2023-11-19T12:37:43;17.30;99.90
11619;DHT22;5865;48.776;9.280;2023-11-19T12:40:16;16.90;99.90
11619;DHT22;5865;48.776;9.280;2023-11-19T12:42:44;16.90;99.90
11619;DHT22;5865;48.776;9.280;2023-11-19T12:45:12;16.90;99.90
11619;DHT22;5865;48.776;9.280;2023-11-19T12:47:39;16.90;99.90
11619;DHT22;5865;48.776;9.280;2023-11-19T12:50:07;16.80;99.90
11619;DHT22;5865;48.776;9.280;2023-11-19T12:55:03;16.90;99.90
11619;DHT22;5865;48.776;9.280;2023-11-19T12:57:40;16.90;99.90
11619;DHT22;5865;48.776;9.280;2023-11-19T13:00:17;16.40;99.90
11619;DHT22;5865;48.776;9.280;2023-11-19T13:05:28;16.40;99.90
11619;DHT22;5865;48.776;9.280;2023-11-19T13:08:00;16.40;99.90
11619;DHT22;5865;48.776;9.280;2023-11-19T13:10:28;16.50;99.90
11619;DHT22;5865;48.776;9.280;2023-11-19T13:13:06;16.80;99.90
11619;DHT22;5865;48.776;9.280;2023-11-19T13:15:34;16.80;99.90
11619;DHT22;5865;48.776;9.280;2023-11-19T13:18:02;16.70;99.90
11619;DHT22;5865;48.776;9.280;2023-11-19T13:20:29;16.70;99.90
11619;DHT22;5865;48.776;9.280;2023-11-19T13:22:57;16.60;99.90
11619;DHT22;5865;48.776;9.280;2023-11-19T13:25:25;16.50;99.90
11619;DHT22;5865;48.776;9.280;2023-11-19T13:27:53;16.30;99.90
11619;DHT22;5865;48.776;9.280;2023-11-19T13:30:21;16.20;99.90
11619;DHT22;5865;48.776;9.280;2023-11-19T13:32:49;16.20;99.90
11619;DHT22;5865;48.776;9.280;2023-11-19T13:35:17;15.90;99.90
11619;DHT22;5865;48.776;9.280;2023-11-19T13:37:44;15.80;99.90
11619;DHT22;5865;48.776;9.280;2023-11-19T13:40:12;15.70;99.90
11619;DHT22;5865;48.776;9.280;2023-11-19T13:45:09;15.80;99.90
11619;DHT22;5865;48.776;9.280;2023-11-19T13:47:39;15.90;99.90
11619;DHT22;5865;48.776;9.280;2023-11-19T13:50:08;16.10;99.90
11619;DHT22;5865;48.776;9.280;2023-11-19T13:52:36;16.10;99.90
11619;DHT22;5865;48.776;9.280;2023-11-19T13:57:33;17.40;99.90
11619;DHT22;5865;48.776;9.280;2023-11-19T14:00:00;17.00;99.90
11619;DHT22;5865;48.776;9.280;2023-11-19T14:02:34;16.80;99.90
11619;DHT22;5865;48.776;9.280;2023-11-19T14:05:03;17.00;99.90
11619;DHT22;5865;48.776;9.280;2023-11-19T14:07:31;17.20;99.90
11619;DHT22;5865;48.776;9.280;2023-11-19T14:09:58;17.40;99.90
11619;DHT22;5865;48.776;9.280;2023-11-19T14:12:25;16.70;99.90
11619;DHT22;5865;48.776;9.280;2023-11-19T14:14:52;16.30;99.90
11619;DHT22;5865;48.776;9.280;2023-11-19T14:17:20;16.40;99.90
11619;DHT22;5865;48.776;9.280;2023-11-19T14:19:47;16.00;99.90
11619;DHT22;5865;48.776;9.280;2023-11-19T14:22:15;15.70;99.90
11619;DHT22;5865;48.776;9.280;2023-11-19T14:24:42;16.00;99.90
11619;DHT22;5865;48.776;9.280;2023-11-19T14:27:09;16.60;99.90
11619;DHT22;5865;48.776;9.280;2023-11-19T14:29:37;16.70;99.90
11619;DHT22;5865;48.776;9.280;2023-11-19T14:32:05;17.00;99.90
11619;DHT22;5865;48.776;9.280;2023-11-19T14:34:32;17.80;99.90
11619;DHT22;5865;48.776;9.280;2023-11-19T14:36:59;17.70;99.90
11619;DHT22;5865;48.776;9.280;2023-11-19T14:41:56;17.90;99.90
11619;DHT22;5865;48.776;9.280;2023-11-19T14:44:26;18.20;99.90
11619;DHT22;5865;48.776;9.280;2023-11-19T14:46:55;18.70;99.90
11619;DHT22;5865;48.776;9.280;2023-11-19T14:49:22;19.00;99.90
11619;DHT22;5865;48.776;9.280;2023-11-19T14:51:50;18.60;99.90
11619;DHT22;5865;48.776;9.280;2023-11-19T14:54:16;18.50;99.90
11619;DHT22;5865;48.776;9.280;2023-11-19T14:56:45;17.60;99.90
11619;DHT22;5865;48.776;9.280;2023-11-19T14:59:12;16.90;99.90
11619;DHT22;5865;48.776;9.280;2023-11-19T15:01:39;16.20;99.90
11619;DHT22;5865;48.776;9.280;2023-11-19T15:04:06;15.80;99.90
11619;DHT22;5865;48.776;9.280;2023-11-19T15:06:33;15.20;99.90
11619;DHT22;5865;48.776;9.280;2023-11-19T15:09:00;14.90;99.90
11619;DHT22;5865;48.776;9.280;2023-11-19T15:11:27;14.30;99.90
11619;DHT22;5865;48.776;9.280;2023-11-19T15:13:55;14.10;99.90
11619;DHT22;5865;48.776;9.280;2023-11-19T15:16:22;13.90;99.90
11619;DHT22;5865;48.776;9.280;2023-11-19T15:18:56;13.80;99.90
11619;DHT22;5865;48.776;9.280;2023-11-19T15:21:25;13.70;99.90
11619;DHT22;5865;48.776;9.280;2023-11-19T15:23:52;13.80;99.90
11619;DHT22;5865;48.776;9.280;2023-11-19T15:26:19;13.50;99.90
11619;DHT22;5865;48.776;9.280;2023-11-19T15:28:46;13.50;99.90
11619;DHT22;5865;48.776;9.280;2023-11-19T15:31:15;13.40;99.90
11619;DHT22;5865;48.776;9.280;2023-11-19T15:33:42;13.40;99.90
11619;DHT22;5865;48.776;9.280;2023-11-19T15:36:09;13.20;99.90
11619;DHT22;5865;48.776;9.280;2023-11-19T15:38:36;13.20;99.90
11619;DHT22;5865;48.776;9.280;2023-11-19T15:41:04;13.00;99.90
11619;DHT22;5865;48.776;9.280;2023-11-19T15:43:32;12.90;99.90
11619;DHT22;5865;48.776;9.280;2023-11-19T15:46:00;12.90;99.90
11619;DHT22;5865;48.776;9.280;2023-11-19T15:48:28;12.80;99.90
11619;DHT22;5865;48.776;9.280;2023-11-19T15:50:55;12.60;99.90
11619;DHT22;5865;48.776;9.280;2023-11-19T15:53:22;12.90;99.90
11619;DHT22;5865;48.776;9.280;2023-11-19T15:55:49;12.80;99.90
11619;DHT22;5865;48.776;9.280;2023-11-19T15:58:18;12.50;99.90
11619;DHT22;5865;48.776;9.280;2023-11-19T16:00:45;12.20;99.90
11619;DHT22;5865;48.776;9.280;2023-11-19T16:03:12;12.10;99.90
11619;DHT22;5865;48.776;9.280;2023-11-19T16:05:41;12.20;99.90
11619;DHT22;5865;48.776;9.280;2023-11-19T16:08:08;12.10;99.90
11619;DHT22;5865;48.776;9.280;2023-11-19T16:10:36;11.90;99.90
11619;DHT22;5865;48.776;9.280;2023-11-19T16:13:06;11.80;99.90
11619;DHT22;5865;48.776;9.280;2023-11-19T16:15:33;12.00;99.90
11619;DHT22;5865;48.776;9.280;2023-11-19T16:18:00;12.20;99.90
11619;DHT22;5865;48.776;9.280;2023-11-19T16:20:27;12.20;99.90
11619;DHT22;5865;48.776;9.280;2023-11-19T16:22:57;12.20;99.90
11619;DHT22;5865;48.776;9.280;2023-11-19T16:25:26;12.20;99.90
11619;DHT22;5865;48.776;9.280;2023-11-19T16:27:53;12.20;99.90
11619;DHT22;5865;48.776;9.280;2023-11-19T16:30:20;12.10;99.90
11619;DHT22;5865;48.776;9.280;2023-11-19T16:32:51;12.00;99.90
11619;DHT22;5865;48.776;9.280;2023-11-19T16:35:20;11.90;99.90
11619;DHT22;5865;48.776;9.280;2023-11-19T16:37:47;11.60;99.90
11619;DHT22;5865;48.776;9.280;2023-11-19T16:40:16;11.10;99.90
11619;DHT22;5865;48.776;9.280;2023-11-19T16:42:44;11.10;99.90
11619;DHT22;5865;48.776;9.280;2023-11-19T16:45:12;11.00;99.90
11619;DHT22;5865;48.776;9.280;2023-11-19T16:47:39;10.70;99.90
11619;DHT22;5865;48.776;9.280;2023-11-19T16:50:07;10.60;99.90
11619;DHT22;5865;48.776;9.280;2023-11-19T16:52:34;10.30;99.90
11619;DHT22;5865;48.776;9.280;2023-11-19T16:55:01;10.20;99.90
11619;DHT22;5865;48.776;9.280;2023-11-19T16:57:38;9.80;99.90
11619;DHT22;5865;48.776;9.280;2023-11-19T17:00:08;9.80;99.90
11619;DHT22;5865;48.776;9.280;2023-11-19T17:02:37;9.80;99.90
11619;DHT22;5865;48.776;9.280;2023-11-19T17:05:08;9.70;99.90
11619;DHT22;5865;48.776;9.280;2023-11-19T17:10:03;9.40;99.90
11619;DHT22;5865;48.776;9.280;2023-11-19T17:12:30;9.40;99.90
11619;DHT22;5865;48.776;9.280;2023-11-19T17:14:58;9.30;99.90
11619;DHT22;5865;48.776;9.280;2023-11-19T17:25:02;9.40;99.90
11619;DHT22;5865;48.776;9.280;2023-11-19T17:27:29;9.50;99.90
11619;DHT22;5865;48.776;9.280;2023-11-19T17:29:58;9.70;99.90
11619;DHT22;5865;48.776;9.280;2023-11-19T17:32:26;9.80;99.90
11619;DHT22;5865;48.776;9.280;2023-11-19T17:37:20;9.70;99.90
11619;DHT22;5865;48.776;9.280;2023-11-19T17:39:47;9.70;99.90
11619;DHT22;5865;48.776;9.280;2023-11-19T17:42:14;9.90;99.90
11619;DHT22;5865;48.776;9.280;2023-11-19T17:47:10;9.70;99.90
11619;DHT22;5865;48.776;9.280;2023-11-19T17:49:38;9.60;99.90
11619;DHT22;5865;48.776;9.280;2023-11-19T17:52:06;9.70;99.90
11619;DHT22;5865;48.776;9.280;2023-11-19T17:57:04;9.70;99.90
11619;DHT22;5865;48.776;9.280;2023-11-19T18:16:49;9.30;99.90
11619;DHT22;5865;48.776;9.280;2023-11-19T18:26:42;9.40;99.90
11619;DHT22;5865;48.776;9.280;2023-11-19T18:56:23;9.90;99.90
11619;DHT22;5865;48.776;9.280;2023-11-19T19:31:04;10.30;99.90
11619;DHT22;5865;48.776;9.280;2023-11-19T19:33:46;10.40;99.90
11619;DHT22;5865;48.776;9.280;2023-11-19T19:39:08;10.70;99.90
11619;DHT22;5865;48.776;9.280;2023-11-19T19:41:51;10.80;99.90
11619;DHT22;5865;48.776;9.280;2023-11-19T19:44:21;10.90;99.90
11619;DHT22;5865;48.776;9.280;2023-11-19T20:06:44;10.50;99.90
11619;DHT22;5865;48.776;9.280;2023-11-19T20:41:51;10.40;99.90
11619;DHT22;5865;48.776;9.280;2023-11-19T21:14:03;9.90;99.90
11619;DHT22;5865;48.776;9.280;2023-11-19T21:16:36;9.90;99.90
11619;DHT22;5865;48.776;9.280;2023-11-19T22:01:31;10.40;99.90
11619;DHT22;5865;48.776;9.280;2023-11-19T22:56:25;9.50;99.90
11619;DHT22;5865;48.776;9.280;2023-11-19T23:19:42;9.80;99.90
11619;DHT22;5865;48.776;9.280;2023-11-19T23:22:23;9.80;99.90
11619;DHT22;5865;48.776;9.280;2023-11-19T23:25:04;9.80;99.90
11619;DHT22;5865;48.776;9.280;2023-11-19T23:43:35;9.20;99.90
11619;DHT22;5865;48.776;9.280;2023-11-19T23:46:04;9.00;99.90
11619;DHT22;5865;48.776;9.280;2023-11-19T23:51:08;8.60;99.90
11619;DHT22;5865;48.776;9.280;2023-11-19T23:54:01;8.40;99.90
